< < Back
Terminal Aerodrome Forecast


Current Version              Previous Versions:   1  2  3  4  5  6  7  8  9  

Terminal Aerodrome Forecast

293
FTUS44 KBMX 291120
TAFBHM
TAF
KBHM 291120Z 2912/3012 03004KT P6SM SCT200
     FM291800 05009G15KT P6SM SCT050
     FM300100 09003KT P6SM SCT250=

Latest METAR

520
SAUS70 KWBC 301300 RRG
MTRBHM
METAR KBHM 301253Z 06004KT 10SM CLR 26/20 A3011 RMK AO2 SLP186
T02610200


USA.gov is the U.S. government's official web portal to all federal, state and local government web resources and services.